Time;durP1;ratioP1;P1;durP2;ratioP2;P2;SDS_P1;SDS_P2;PMS_P1;PMS_P2;Temp;Humidity;BMP_temperature;BMP_pressure;BME280_temperature;BME280_humidity;BME280_pressure;Samples;Min_cycle;Max_cycle;Signal;HPM_P1;HPM_P2
2021/11/21 00:01:25;;;;;;;11.07;5.78;;;;;;;3.37;78.94;96749.22;5094459;28;20471;-68
2021/11/21 00:03:51;;;;;;;7.32;5.03;;;;;;;3.42;78.11;96757.78;5094395;28;20436;-68
2021/11/21 00:06:18;;;;;;;6.70;5.07;;;;;;;3.44;79.44;96755.19;5094394;28;20021;-68
2021/11/21 00:08:44;;;;;;;6.47;5.80;;;;;;;3.38;78.85;96756.09;5094352;28;20106;-65
2021/11/21 00:11:10;;;;;;;7.40;5.53;;;;;;;3.41;78.97;96759.50;5094224;28;20433;-64
2021/11/21 00:13:36;;;;;;;6.82;5.65;;;;;;;3.44;78.77;96761.22;5094225;28;20024;-66
2021/11/21 00:16:01;;;;;;;9.48;5.85;;;;;;;3.42;79.35;96755.19;5094120;28;20462;-65
2021/11/21 00:18:27;;;;;;;9.38;5.85;;;;;;;3.28;79.24;96743.19;5094093;28;20020;-66
2021/11/21 00:20:53;;;;;;;8.13;5.30;;;;;;;3.28;79.19;96740.63;5093886;28;20054;-66
2021/11/21 00:23:21;;;;;;;7.50;5.32;;;;;;;3.31;79.59;96746.66;5093917;28;20025;-68
2021/11/21 00:25:47;;;;;;;9.18;5.43;;;;;;;3.33;79.55;96750.06;5094074;28;20028;-67
2021/11/21 00:28:13;;;;;;;8.05;6.07;;;;;;;3.37;79.82;96749.22;5093804;28;20032;-65
2021/11/21 00:30:39;;;;;;;11.85;6.10;;;;;;;3.34;79.87;96746.63;5093881;28;20043;-65
2021/11/21 00:33:04;;;;;;;10.52;7.10;;;;;;;3.24;80.74;96745.81;5093143;28;20096;-64
2021/11/21 00:35:31;;;;;;;10.27;5.85;;;;;;;3.25;80.50;96743.22;5093766;28;20462;-65
2021/11/21 00:37:58;;;;;;;8.02;5.43;;;;;;;3.22;80.11;96738.06;5093809;28;20470;-68
2021/11/21 00:40:25;;;;;;;9.15;5.63;;;;;;;3.27;79.29;96740.63;5093616;28;20458;-66
2021/11/21 00:42:51;;;;;;;10.10;6.00;;;;;;;3.30;80.04;96738.03;5093635;28;20048;-69
2021/11/21 00:45:17;;;;;;;8.30;6.13;;;;;;;3.19;79.88;96730.31;5093747;28;20111;-66
2021/11/21 00:47:42;;;;;;;7.78;6.25;;;;;;;3.18;80.51;96723.44;5093542;28;20025;-67
2021/11/21 00:50:12;;;;;;;9.20;6.05;;;;;;;3.18;79.17;96725.16;5093685;28;20078;-67
2021/11/21 00:52:38;;;;;;;11.82;7.40;;;;;;;3.15;80.04;96729.50;5093472;28;20032;-66
2021/11/21 00:55:16;;;;;;;8.50;6.25;;;;;;;3.24;80.66;96735.47;5093467;28;20020;-65
2021/11/21 00:57:43;;;;;;;7.60;6.10;;;;;;;3.19;80.60;96734.66;5093496;28;20462;-62
2021/11/21 01:00:14;;;;;;;9.57;6.78;;;;;;;3.18;80.78;96740.66;5093463;28;20095;-66
2021/11/21 01:02:42;;;;;;;11.82;7.28;;;;;;;3.15;80.72;96741.56;5093443;28;20031;-67
2021/11/21 01:05:09;;;;;;;9.43;6.22;;;;;;;3.07;80.39;96736.41;5093315;28;20035;-63
2021/11/21 01:07:38;;;;;;;10.52;6.95;;;;;;;3.10;80.21;96727.81;5093306;28;20466;-67
2021/11/21 01:10:13;;;;;;;10.20;7.20;;;;;;;3.12;80.24;96726.06;5093363;28;20024;-68
2021/11/21 01:12:42;;;;;;;11.80;7.70;;;;;;;3.15;80.80;96729.50;5093343;28;20500;-65
2021/11/21 01:15:12;;;;;;;9.75;7.57;;;;;;;3.21;81.10;96723.44;5093348;28;20023;-65
2021/11/21 01:17:50;;;;;;;21.33;13.70;;;;;;;3.24;80.58;96728.59;5093089;28;20174;-64
2021/11/21 01:23:37;;;;;;;12.40;9.50;;;;;;;3.12;80.14;96726.06;5093690;28;20093;-63
2021/11/21 01:26:03;;;;;;;11.65;8.75;;;;;;;3.13;79.67;96725.22;5093162;28;20016;-67
2021/11/21 01:28:28;;;;;;;12.63;10.98;;;;;;;3.06;79.16;96726.94;5092983;28;20036;-65
2021/11/21 01:30:54;;;;;;;11.13;7.90;;;;;;;2.87;79.05;96716.72;5093095;28;20020;-66
2021/11/21 01:33:20;;;;;;;11.80;8.40;;;;;;;2.89;79.48;96719.28;5093093;28;20024;-67
2021/11/21 01:35:46;;;;;;;15.30;10.95;;;;;;;2.94;79.52;96720.13;5093341;28;20032;-63
2021/11/21 01:38:11;;;;;;;15.10;13.05;;;;;;;2.93;79.79;96713.25;5093026;28;20032;-64
2021/11/21 01:40:38;;;;;;;16.65;12.63;;;;;;;2.97;80.06;96709.75;5092932;28;20115;-66
2021/11/21 01:43:05;;;;;;;17.67;13.68;;;;;;;2.89;80.07;96707.22;5093957;28;20032;-67
2021/11/21 01:45:32;;;;;;;12.32;8.95;;;;;;;2.88;79.87;96707.22;5097164;28;20016;-67
2021/11/21 01:47:57;;;;;;;9.65;7.47;;;;;;;2.88;80.84;96713.25;5096993;28;20149;-65
2021/11/21 01:50:27;;;;;;;10.82;7.80;;;;;;;2.85;80.56;96713.25;5096889;28;20107;-65
2021/11/21 01:52:52;;;;;;;10.23;7.30;;;;;;;2.86;80.65;96720.16;5097061;28;20032;-64
2021/11/21 01:55:19;;;;;;;14.50;8.63;;;;;;;2.86;81.14;96716.72;5097067;28;20059;-63
2021/11/21 01:57:44;;;;;;;12.70;7.57;;;;;;;2.88;81.20;96715.84;5096980;28;20020;-65
2021/11/21 02:00:11;;;;;;;11.57;7.18;;;;;;;2.81;80.39;96714.16;5096718;28;20072;-64
2021/11/21 02:02:37;;;;;;;9.15;6.55;;;;;;;2.76;80.36;96706.41;5096798;28;20076;-63
2021/11/21 02:05:03;;;;;;;10.18;6.75;;;;;;;2.78;79.99;96706.41;5096786;28;20467;-66
2021/11/21 02:07:30;;;;;;;9.98;7.63;;;;;;;2.81;79.92;96708.13;5096609;28;20024;-63
2021/11/21 02:09:56;;;;;;;9.25;6.90;;;;;;;2.78;80.29;96702.13;5096584;28;20028;-63
2021/11/21 02:12:22;;;;;;;9.25;6.70;;;;;;;2.77;80.51;96697.78;5096557;28;20027;-62
2021/11/21 02:14:48;;;;;;;11.55;7.07;;;;;;;2.75;80.19;96702.13;5096562;28;20020;-63
2021/11/21 02:17:13;;;;;;;9.88;6.78;;;;;;;2.81;79.87;96695.19;5096511;28;20095;-65
2021/11/21 02:19:39;;;;;;;10.68;6.88;;;;;;;2.69;79.92;96693.53;5096243;28;20044;-63
2021/11/21 02:22:05;;;;;;;9.13;6.57;;;;;;;2.56;79.92;96683.22;5096508;28;20028;-62
2021/11/21 02:24:30;;;;;;;10.75;7.30;;;;;;;2.55;80.89;96688.41;5096313;28;20496;-65
2021/11/21 02:26:56;;;;;;;10.95;8.25;;;;;;;2.60;80.77;96694.41;5096282;28;20525;-65
2021/11/21 02:29:22;;;;;;;13.32;7.30;;;;;;;2.62;81.34;96682.38;5096248;28;20116;-64
2021/11/21 02:31:47;;;;;;;10.07;7.13;;;;;;;2.68;81.41;96692.66;5096367;28;20035;-67
2021/11/21 02:34:13;;;;;;;12.45;7.47;;;;;;;2.65;81.10;96680.63;5096229;28;20020;-63
2021/11/21 02:36:45;;;;;;;9.50;7.55;;;;;;;2.69;80.78;96678.91;5096028;28;20059;-65
2021/11/21 02:39:13;;;;;;;11.82;6.95;;;;;;;2.76;80.59;96684.88;5095950;28;20145;-68
2021/11/21 02:41:39;;;;;;;9.55;6.63;;;;;;;2.80;80.32;96686.56;5096027;28;20021;-65
2021/11/21 02:44:06;;;;;;;11.50;7.10;;;;;;;2.77;80.33;96677.13;5096053;28;20027;-63
2021/11/21 02:46:32;;;;;;;11.25;7.00;;;;;;;2.73;80.16;96667.66;5096032;28;20020;-64
2021/11/21 02:49:00;;;;;;;9.23;6.60;;;;;;;2.73;79.86;96674.56;5095767;28;20074;-63
2021/11/21 02:51:26;;;;;;;9.05;6.80;;;;;;;2.72;79.88;96668.53;5095777;28;20020;-63
2021/11/21 02:53:53;;;;;;;9.77;6.82;;;;;;;2.63;79.99;96669.44;5095878;28;20027;-65
2021/11/21 02:56:19;;;;;;;10.68;6.43;;;;;;;2.59;79.99;96659.13;5094929;28;20378;-63
2021/11/21 02:58:47;;;;;;;6.95;5.97;;;;;;;2.52;80.27;96666.91;5095821;28;20467;-63
2021/11/21 03:01:16;;;;;;;8.07;6.43;;;;;;;2.55;80.16;96676.34;5095663;28;20065;-65
2021/11/21 03:03:42;;;;;;;9.80;6.75;;;;;;;2.47;80.38;96672.94;5095765;28;20028;-67
2021/11/21 03:06:08;;;;;;;9.80;7.15;;;;;;;2.42;80.52;96666.94;5095678;28;20493;-67
2021/11/21 03:08:33;;;;;;;10.85;6.88;;;;;;;2.47;80.33;96673.78;5095431;28;20020;-65
2021/11/21 03:11:10;;;;;;;13.52;7.22;;;;;;;2.47;80.08;96670.38;5095504;28;20020;-66
2021/11/21 03:13:35;;;;;;;10.20;7.75;;;;;;;2.49;80.17;96666.03;5095457;28;20407;-63
2021/11/21 03:16:01;;;;;;;11.13;7.68;;;;;;;2.50;80.22;96670.38;5095263;28;20024;-65
2021/11/21 03:18:26;;;;;;;9.90;7.93;;;;;;;2.49;80.18;96671.22;5095396;28;20032;-65
2021/11/21 03:20:52;;;;;;;10.20;7.43;;;;;;;2.53;80.52;96668.63;5095246;28;20051;-67
2021/11/21 03:23:17;;;;;;;9.60;6.47;;;;;;;2.55;79.45;96668.59;5095259;28;20051;-64
2021/11/21 03:25:43;;;;;;;10.05;6.55;;;;;;;2.53;78.85;96663.44;5095333;28;20024;-63
2021/11/21 03:28:09;;;;;;;8.88;6.03;;;;;;;2.38;78.50;96656.63;5095034;28;20056;-64
2021/11/21 03:30:34;;;;;;;14.05;8.02;;;;;;;2.38;79.02;96655.78;5095200;28;20052;-65
2021/11/21 03:33:00;;;;;;;9.23;7.22;;;;;;;2.37;79.20;96657.47;5095213;28;20079;-63
2021/11/21 03:35:26;;;;;;;12.38;7.80;;;;;;;2.36;80.16;96655.78;5095076;28;20024;-65
2021/11/21 03:37:52;;;;;;;11.25;8.13;;;;;;;2.36;80.14;96652.31;5094943;28;20035;-64
2021/11/21 03:40:17;;;;;;;14.13;10.20;;;;;;;2.33;80.21;96655.78;5094869;28;20099;-66
2021/11/21 03:42:44;;;;;;;17.10;11.18;;;;;;;2.35;81.02;96660.94;5094831;28;20020;-63
2021/11/21 03:45:10;;;;;;;20.58;11.55;;;;;;;2.38;81.03;96658.34;5094754;28;20355;-68
2021/11/21 03:47:36;;;;;;;17.27;12.15;;;;;;;2.32;81.04;96660.94;5094804;28;20099;-66
2021/11/21 03:50:04;;;;;;;8.90;6.80;;;;;;;2.34;80.08;96660.06;5094540;28;20597;-65
2021/11/21 03:52:29;;;;;;;11.93;7.32;;;;;;;2.27;79.58;96661.84;5094656;28;20073;-67
2021/11/21 03:54:55;;;;;;;10.32;7.18;;;;;;;2.21;79.89;96660.97;5094628;28;20412;-64
2021/11/21 03:57:21;;;;;;;12.18;8.40;;;;;;;2.12;80.16;96661.88;5094639;28;20027;-64
2021/11/21 03:59:47;;;;;;;13.13;8.38;;;;;;;2.07;81.22;96658.41;5094548;28;20032;-66
2021/11/21 04:02:13;;;;;;;13.70;9.02;;;;;;;2.08;80.92;96655.84;5094596;28;20039;-66
2021/11/21 04:04:38;;;;;;;13.48;9.32;;;;;;;2.08;80.59;96655.00;5094359;28;20024;-66
2021/11/21 04:07:04;;;;;;;10.85;7.63;;;;;;;2.11;79.62;96655.81;5094401;28;20492;-68
2021/11/21 04:09:30;;;;;;;13.50;8.00;;;;;;;2.09;78.99;96660.16;5094454;28;20466;-65
2021/11/21 04:11:55;;;;;;;10.85;6.07;;;;;;;2.04;79.83;96661.03;5094376;28;20030;-65
2021/11/21 04:14:21;;;;;;;9.45;6.90;;;;;;;2.01;80.85;96662.75;5094284;28;20026;-66
2021/11/21 04:16:48;;;;;;;11.85;8.43;;;;;;;2.03;80.51;96667.91;5094258;28;20040;-64
2021/11/21 04:19:14;;;;;;;15.48;9.48;;;;;;;1.98;80.00;96667.91;5093893;28;20040;-65
2021/11/21 04:21:39;;;;;;;22.45;14.60;;;;;;;1.98;80.35;96669.63;5094251;28;20028;-64
2021/11/21 04:24:08;;;;;;;11.27;7.95;;;;;;;2.02;79.59;96668.78;5092785;28;20020;-66
2021/11/21 04:26:34;;;;;;;12.27;8.15;;;;;;;1.96;79.54;96672.19;5093938;28;20027;-67
2021/11/21 04:28:59;;;;;;;10.07;7.30;;;;;;;1.90;79.64;96679.97;5094002;28;20114;-62
2021/11/21 04:31:25;;;;;;;10.98;7.50;;;;;;;1.95;79.53;96687.69;5094052;28;20013;-65
2021/11/21 04:33:50;;;;;;;12.82;8.25;;;;;;;1.84;79.93;96680.81;5093932;28;20073;-65
2021/11/21 04:36:16;;;;;;;11.10;6.60;;;;;;;1.81;80.01;96683.44;5094019;28;20031;-67
2021/11/21 04:38:42;;;;;;;13.30;10.25;;;;;;;1.80;79.91;96688.59;5093777;28;20091;-66
2021/11/21 04:41:07;;;;;;;16.48;13.27;;;;;;;1.79;80.75;96686.84;5093817;28;20065;-63
2021/11/21 04:43:33;;;;;;;20.63;14.35;;;;;;;1.80;80.92;96688.59;5093906;28;20466;-64
2021/11/21 04:45:58;;;;;;;16.00;11.07;;;;;;;1.73;81.05;96686.00;5093767;28;20032;-67
2021/11/21 04:48:25;;;;;;;10.43;7.88;;;;;;;1.79;80.23;96689.44;5093636;28;20534;-65
2021/11/21 04:50:51;;;;;;;9.82;7.45;;;;;;;1.70;79.68;96686.00;5093531;28;20032;-64
2021/11/21 04:53:17;;;;;;;12.35;6.97;;;;;;;1.69;78.97;96679.13;5093468;28;20150;-67
2021/11/21 04:55:43;;;;;;;10.02;6.30;;;;;;;1.67;78.70;96687.72;5093506;28;20099;-63
2021/11/21 04:58:08;;;;;;;9.38;7.78;;;;;;;1.63;79.01;96687.72;5093580;28;20028;-65
2021/11/21 05:00:34;;;;;;;10.98;8.02;;;;;;;1.59;79.74;96686.00;5093536;28;20028;-67
2021/11/21 05:03:00;;;;;;;14.63;8.75;;;;;;;1.49;80.14;96692.88;5093355;28;20055;-68
2021/11/21 05:05:26;;;;;;;22.20;11.20;;;;;;;1.42;81.79;96687.72;5093411;28;20017;-64
2021/11/21 05:07:52;;;;;;;13.40;7.55;;;;;;;1.50;80.65;96686.88;5093388;28;20027;-65
2021/11/21 05:10:19;;;;;;;9.88;7.22;;;;;;;1.53;80.23;96690.31;5093368;28;20023;-63
2021/11/21 05:12:45;;;;;;;16.50;7.50;;;;;;;1.53;79.65;96688.56;5093279;28;20053;-64
2021/11/21 05:15:14;;;;;;;13.90;9.52;;;;;;;1.56;79.17;96690.31;5093306;28;20020;-65
2021/11/21 05:17:40;;;;;;;18.03;10.63;;;;;;;1.47;79.85;96688.56;5092704;28;20481;-65
2021/11/21 05:20:07;;;;;;;62.97;46.60;;;;;;;1.43;80.67;96685.16;5093037;28;20040;-67
2021/11/21 05:22:32;;;;;;;44.80;30.08;;;;;;;1.45;80.67;96686.00;5092139;28;20024;-64
2021/11/21 05:24:58;;;;;;;49.63;26.75;;;;;;;1.45;80.24;96692.88;5093253;28;20381;-66
2021/11/21 05:27:24;;;;;;;27.65;17.90;;;;;;;1.42;80.37;96683.44;5093101;28;20020;-64
2021/11/21 05:29:51;;;;;;;19.25;14.18;;;;;;;1.47;80.08;96691.16;5092997;28;20077;-65
2021/11/21 05:32:18;;;;;;;18.70;10.88;;;;;;;1.50;80.10;96694.59;5093153;28;20030;-65
2021/11/21 05:34:44;;;;;;;22.17;17.23;;;;;;;1.56;80.13;96692.91;5093133;28;20477;-65
2021/11/21 05:37:10;;;;;;;15.88;9.55;;;;;;;1.63;79.47;96692.03;5093217;28;20030;-62
2021/11/21 05:39:35;;;;;;;13.63;9.25;;;;;;;1.61;79.19;96693.75;5093214;28;20355;-66
2021/11/21 05:42:01;;;;;;;14.55;7.75;;;;;;;1.59;78.97;96686.00;5093078;28;20028;-65
2021/11/21 05:44:27;;;;;;;9.23;7.10;;;;;;;1.51;79.41;96692.88;5092978;28;20032;-64
2021/11/21 05:46:52;;;;;;;13.07;8.07;;;;;;;1.57;79.75;96687.75;5093086;28;20423;-63
2021/11/21 05:49:18;;;;;;;18.42;12.07;;;;;;;1.60;79.74;96699.78;5092993;28;20428;-63
2021/11/21 05:51:44;;;;;;;18.30;10.77;;;;;;;1.62;79.93;96698.03;5092882;28;20498;-64
2021/11/21 05:54:09;;;;;;;14.95;10.52;;;;;;;1.79;80.38;96697.16;5093058;28;20161;-66
2021/11/21 05:56:35;;;;;;;37.53;24.13;;;;;;;2.27;81.63;96700.56;5092929;28;20103;-65
2021/11/21 05:59:01;;;;;;;23.25;15.10;;;;;;;3.32;77.38;96692.34;5092990;28;20020;-62
2021/11/21 06:01:27;;;;;;;9.90;7.80;;;;;;;4.74;73.05;96692.72;5092810;28;20486;-63
2021/11/21 06:03:54;;;;;;;5.97;4.30;;;;;;;6.31;65.88;96695.59;5092752;28;20542;-65
2021/11/21 06:06:20;;;;;;;8.73;4.70;;;;;;;7.83;61.58;96695.00;5092821;28;20478;-64
2021/11/21 06:08:46;;;;;;;3.67;3.35;;;;;;;9.10;57.23;96695.13;5092691;28;20028;-64
2021/11/21 06:11:12;;;;;;;6.85;3.92;;;;;;;10.47;52.69;96690.78;5092852;28;20584;-64
2021/11/21 06:13:38;;;;;;;7.38;5.82;;;;;;;11.81;51.80;96689.28;5091534;28;20065;-64
2021/11/21 06:16:04;;;;;;;4.28;3.72;;;;;;;13.01;47.18;96679.00;5092674;28;20107;-66
2021/11/21 06:18:29;;;;;;;4.43;3.80;;;;;;;14.15;45.16;96689.44;5092645;28;20048;-65
2021/11/21 06:20:55;;;;;;;4.75;3.80;;;;;;;15.21;43.54;96685.78;5092492;28;20071;-66
2021/11/21 06:23:20;;;;;;;6.50;4.10;;;;;;;16.16;41.97;96688.44;5092675;28;20027;-63
2021/11/21 06:25:47;;;;;;;4.07;3.40;;;;;;;16.95;39.59;96685.56;5092505;28;20415;-64
2021/11/21 06:28:12;;;;;;;4.75;3.83;;;;;;;17.67;38.25;96697.81;5092566;28;20508;-66
2021/11/21 06:30:40;;;;;;;4.47;3.70;;;;;;;18.13;35.83;96693.16;5094284;28;20095;-70
2021/11/21 06:33:06;;;;;;;4.05;3.63;;;;;;;18.85;34.93;96688.38;5096365;28;20031;-67
2021/11/21 06:35:32;;;;;;;4.47;3.65;;;;;;;19.39;34.27;96690.84;5096270;28;20023;-67
2021/11/21 06:37:58;;;;;;;4.80;3.55;;;;;;;19.96;33.29;96701.81;5096077;28;20474;-63
2021/11/21 06:40:25;;;;;;;4.32;3.67;;;;;;;20.52;32.52;96696.81;5096057;28;20024;-66
2021/11/21 06:42:51;;;;;;;5.35;4.45;;;;;;;20.79;32.31;96701.84;5096045;28;20024;-68
2021/11/21 06:45:17;;;;;;;6.07;4.82;;;;;;;21.10;32.25;96703.94;5096095;28;20026;-66
2021/11/21 06:47:43;;;;;;;6.25;5.40;;;;;;;21.57;31.88;96703.81;5096052;28;20024;-66
2021/11/21 06:50:12;;;;;;;9.20;5.00;;;;;;;22.22;31.32;96705.69;5095884;28;20024;-68
2021/11/21 06:52:38;;;;;;;6.40;4.55;;;;;;;22.77;30.01;96703.88;5095852;28;20032;-60
2021/11/21 06:55:06;;;;;;;9.00;4.28;;;;;;;23.24;29.59;96705.22;5095833;28;20073;-67
2021/11/21 06:57:34;;;;;;;5.10;3.95;;;;;;;23.54;29.16;96692.84;5095748;28;20447;-64
2021/11/21 07:00:01;;;;;;;4.32;3.70;;;;;;;23.96;28.40;96696.31;5095711;28;20107;-64
2021/11/21 07:02:27;;;;;;;4.10;3.55;;;;;;;24.31;28.24;96696.75;5095686;28;20024;-61
2021/11/21 07:04:52;;;;;;;4.28;3.60;;;;;;;24.41;28.43;96696.75;5095599;28;20493;-63
2021/11/21 07:07:18;;;;;;;4.85;3.22;;;;;;;24.70;27.61;96687.84;5095694;28;20058;-66
2021/11/21 07:09:44;;;;;;;6.65;3.83;;;;;;;25.05;27.08;96696.22;5095567;28;20035;-64
2021/11/21 07:12:12;;;;;;;7.57;4.07;;;;;;;25.38;26.70;96680.59;5095546;28;20531;-62
2021/11/21 07:14:37;;;;;;;4.28;3.83;;;;;;;25.58;26.63;96688.50;5095529;28;20056;-65
2021/11/21 07:17:04;;;;;;;4.55;3.80;;;;;;;25.33;26.71;96681.06;5095270;28;20067;-63
2021/11/21 07:19:30;;;;;;;5.97;4.20;;;;;;;25.78;26.48;96675.03;5095112;28;20048;-66
2021/11/21 07:21:56;;;;;;;4.53;3.90;;;;;;;26.05;26.95;96673.28;5094087;28;20032;-64
2021/11/21 07:24:22;;;;;;;7.45;4.25;;;;;;;26.34;25.79;96680.28;5095227;28;20022;-66
2021/11/21 07:26:48;;;;;;;6.13;4.22;;;;;;;26.37;26.32;96672.75;5095167;28;20028;-67
2021/11/21 07:29:13;;;;;;;5.80;4.30;;;;;;;25.95;25.92;96665.34;5094925;28;20016;-64
2021/11/21 07:31:39;;;;;;;4.28;3.88;;;;;;;26.03;25.68;96661.91;5095069;28;20428;-66
2021/11/21 07:34:05;;;;;;;4.13;3.72;;;;;;;26.19;27.06;96655.84;5095060;28;20058;-66
2021/11/21 07:36:31;;;;;;;4.68;4.00;;;;;;;26.33;26.74;96655.31;5095012;28;20016;-67
2021/11/21 07:38:56;;;;;;;4.75;3.70;;;;;;;26.51;26.10;96656.28;5094892;28;20158;-65
2021/11/21 07:41:22;;;;;;;5.60;3.70;;;;;;;25.85;27.32;96652.00;5094449;28;20027;-64
2021/11/21 07:43:48;;;;;;;6.28;4.07;;;;;;;26.14;26.80;96653.63;5094829;28;20466;-67
2021/11/21 07:46:13;;;;;;;5.07;3.97;;;;;;;25.88;27.71;96650.88;5094733;28;20024;-63
2021/11/21 07:48:39;;;;;;;3.83;3.53;;;;;;;26.09;27.17;96646.03;5094715;28;20012;-65
2021/11/21 07:51:06;;;;;;;5.45;4.18;;;;;;;26.09;27.44;96654.09;5094757;28;20112;-68
2021/11/21 07:53:32;;;;;;;5.18;4.00;;;;;;;26.47;26.63;96648.56;5094718;28;20032;-67
2021/11/21 07:55:57;;;;;;;5.65;4.03;;;;;;;27.08;25.76;96639.72;5094627;28;20035;-64
2021/11/21 07:58:23;;;;;;;7.00;4.13;;;;;;;26.89;25.61;96648.81;5094634;28;20028;-66
2021/11/21 08:00:50;;;;;;;4.80;4.28;;;;;;;26.50;26.71;96647.41;5094549;28;20023;-62
2021/11/21 08:03:15;;;;;;;4.68;3.75;;;;;;;26.69;26.60;96650.84;5094675;28;20020;-67
2021/11/21 08:05:41;;;;;;;4.45;4.00;;;;;;;26.92;26.31;96645.81;5094409;28;20512;-68
2021/11/21 08:08:07;;;;;;;4.40;3.83;;;;;;;26.98;26.00;96655.09;5094279;28;20051;-66
2021/11/21 08:10:34;;;;;;;4.63;3.85;;;;;;;26.17;27.28;96656.00;5094511;28;20024;-61
2021/11/21 08:13:00;;;;;;;4.70;4.15;;;;;;;25.32;28.57;96651.75;5094408;28;20020;-66
2021/11/21 08:15:26;;;;;;;4.68;4.13;;;;;;;24.28;29.56;96648.94;5094430;28;20031;-66
2021/11/21 08:17:52;;;;;;;5.57;3.95;;;;;;;24.15;30.03;96651.91;5094432;28;20443;-66
2021/11/21 08:20:18;;;;;;;9.82;6.80;;;;;;;22.89;31.98;96648.63;5093887;28;20075;-64
2021/11/21 08:22:43;;;;;;;6.03;4.45;;;;;;;22.82;32.34;96648.31;5094129;28;20466;-62
2021/11/21 08:25:10;;;;;;;6.50;4.00;;;;;;;21.89;33.71;96648.94;5094067;28;20032;-67
2021/11/21 08:27:37;;;;;;;4.63;4.03;;;;;;;20.97;35.63;96642.91;5094153;28;20020;-62
2021/11/21 08:30:05;;;;;;;5.70;4.72;;;;;;;20.33;35.66;96645.97;5093908;28;20096;-61
2021/11/21 08:32:32;;;;;;;8.50;4.78;;;;;;;19.92;37.58;96636.63;5093790;28;20389;-65
2021/11/21 08:34:58;;;;;;;6.47;4.97;;;;;;;19.57;37.97;96635.63;5093850;28;20114;-62
2021/11/21 08:37:24;;;;;;;8.40;5.15;;;;;;;19.01;38.75;96619.22;5093994;28;20123;-65
2021/11/21 08:39:50;;;;;;;6.93;5.38;;;;;;;18.38;40.10;96624.44;5093827;28;20020;-64
2021/11/21 08:42:16;;;;;;;7.53;5.57;;;;;;;17.77;41.53;96625.81;5093769;28;20520;-68
2021/11/21 08:44:42;;;;;;;6.25;5.10;;;;;;;17.50;41.84;96626.66;5093754;28;20036;-65
2021/11/21 08:47:10;;;;;;;7.00;4.80;;;;;;;17.13;43.30;96621.94;5093779;28;20032;-67
2021/11/21 08:49:37;;;;;;;6.78;5.20;;;;;;;16.67;44.77;96613.25;5093567;28;20036;-62
2021/11/21 08:52:04;;;;;;;11.43;5.32;;;;;;;16.39;45.20;96613.19;5093335;28;20445;-62
2021/11/21 08:54:31;;;;;;;5.93;5.18;;;;;;;16.14;44.64;96614.63;5093196;28;20020;-63
2021/11/21 08:56:57;;;;;;;6.35;4.97;;;;;;;15.90;44.56;96601.91;5093615;28;20527;-61
2021/11/21 08:59:22;;;;;;;5.90;5.00;;;;;;;15.72;46.38;96608.28;5093527;28;20044;-62
2021/11/21 09:01:48;;;;;;;5.57;4.95;;;;;;;15.49;45.51;96597.25;5093480;28;20024;-65
2021/11/21 09:04:14;;;;;;;6.28;4.07;;;;;;;15.38;46.39;96600.53;5093429;28;20020;-63
2021/11/21 09:06:42;;;;;;;6.75;4.50;;;;;;;15.31;46.82;96591.25;5093492;28;20154;-63
2021/11/21 09:09:08;;;;;;;6.22;4.25;;;;;;;15.35;47.31;96596.25;5093277;28;20031;-61
2021/11/21 09:11:35;;;;;;;6.82;4.80;;;;;;;15.34;48.03;96588.44;5093375;28;20035;-67
2021/11/21 09:14:03;;;;;;;7.13;4.45;;;;;;;15.31;47.65;96588.59;5093190;28;20028;-65
2021/11/21 09:16:28;;;;;;;5.55;4.75;;;;;;;15.26;47.69;96581.81;5093369;28;20429;-62
2021/11/21 09:18:54;;;;;;;5.78;5.05;;;;;;;14.96;49.41;96579.13;5093356;28;20100;-66
2021/11/21 09:21:20;;;;;;;7.80;5.07;;;;;;;14.85;48.59;96577.06;5092987;28;20072;-65
2021/11/21 09:23:45;;;;;;;7.68;5.43;;;;;;;14.89;48.67;96576.81;5093161;28;20035;-61
2021/11/21 09:26:11;;;;;;;35.78;25.42;;;;;;;14.94;48.78;96571.31;5093059;28;20063;-61
2021/11/21 09:28:37;;;;;;;8.93;6.10;;;;;;;15.04;47.75;96571.63;5093055;28;20078;-64
2021/11/21 09:31:03;;;;;;;9.15;5.13;;;;;;;15.03;47.76;96567.31;5093165;28;20020;-64
2021/11/21 09:33:29;;;;;;;7.70;5.03;;;;;;;14.92;47.08;96567.91;5093027;28;20074;-61
2021/11/21 09:35:55;;;;;;;9.25;5.25;;;;;;;14.78;48.97;96555.50;5091810;28;20031;-65
2021/11/21 09:38:21;;;;;;;8.00;5.80;;;;;;;14.53;49.20;96554.16;5093010;28;20020;-68
2021/11/21 09:40:50;;;;;;;8.02;6.25;;;;;;;14.59;48.68;96551.19;5093064;28;20028;-65
2021/11/21 09:43:16;;;;;;;6.50;5.30;;;;;;;14.51;49.16;96546.34;5093136;28;20048;-63
2021/11/21 09:45:42;;;;;;;6.38;5.22;;;;;;;14.51;49.09;96541.09;5092865;28;20532;-60
2021/11/21 09:48:08;;;;;;;9.15;6.25;;;;;;;14.32;49.87;96535.09;5092847;28;20048;-64
2021/11/21 09:50:38;;;;;;;8.75;5.15;;;;;;;14.22;50.06;96532.13;5093130;28;20059;-65
2021/11/21 09:53:04;;;;;;;6.20;5.57;;;;;;;14.24;50.41;96530.28;5093062;28;20463;-68
2021/11/21 09:55:30;;;;;;;7.47;5.85;;;;;;;14.29;50.42;96530.84;5093008;28;20082;-61
2021/11/21 09:57:57;;;;;;;7.72;6.68;;;;;;;14.27;50.70;96522.22;5092901;28;20103;-66
2021/11/21 10:00:25;;;;;;;11.95;6.13;;;;;;;14.34;49.84;96514.84;5092941;28;20051;-62
2021/11/21 10:03:06;;;;;;;6.57;5.40;;;;;;;14.42;48.75;96517.88;5092930;28;20028;-65
2021/11/21 10:05:33;;;;;;;;;;;;;;;14.29;50.29;96512.44;5096645;28;20024;-66
2021/11/21 10:08:08;;;;;;;5.80;4.90;;;;;;;14.35;48.91;96508.63;5096800;28;20004;-64
2021/11/21 10:10:44;;;;;;;7.93;5.35;;;;;;;14.21;49.53;96510.22;5096937;28;20108;-65
2021/11/21 10:13:31;;;;;;;5.68;5.07;;;;;;;14.19;49.77;96513.88;5096645;28;20465;-64
2021/11/21 10:16:17;;;;;;;5.97;5.32;;;;;;;14.30;49.55;96505.41;5096589;28;20035;-66
2021/11/21 10:18:48;;;;;;;7.93;5.47;;;;;;;14.38;50.00;96493.53;5096719;28;20036;-64
2021/11/21 10:21:14;;;;;;;6.18;5.32;;;;;;;14.51;48.38;96498.16;5096393;28;20051;-67
2021/11/21 10:23:42;;;;;;;5.90;4.88;;;;;;;14.53;48.63;96486.59;5096328;28;20078;-65
2021/11/21 10:26:18;;;;;;;6.03;5.45;;;;;;;14.43;49.71;96488.03;5096414;28;20373;-64
2021/11/21 10:28:44;;;;;;;5.70;5.13;;;;;;;14.47;49.19;96481.66;5096370;28;20077;-65
2021/11/21 10:31:13;;;;;;;6.70;5.03;;;;;;;14.42;48.04;96480.22;5096258;28;20024;-65
2021/11/21 10:33:49;;;;;;;11.75;4.90;;;;;;;14.19;49.13;96472.63;5096228;28;20081;-63
2021/11/21 10:36:30;;;;;;;6.18;4.57;;;;;;;14.15;49.42;96471.13;5096235;28;20454;-60
2021/11/21 10:39:08;;;;;;;5.28;4.72;;;;;;;14.16;49.49;96467.53;5096277;28;20028;-63
2021/11/21 10:41:37;;;;;;;7.00;4.57;;;;;;;14.25;49.31;96453.91;5096134;28;20028;-64
2021/11/21 10:44:10;;;;;;;5.07;4.05;;;;;;;14.26;49.44;96458.22;5096122;28;20478;-61
2021/11/21 10:46:48;;;;;;;5.40;4.63;;;;;;;14.28;49.18;96451.09;5096102;28;20720;-63
2021/11/21 10:49:14;;;;;;;4.90;4.40;;;;;;;14.22;49.33;96455.84;5095786;28;20040;-64
2021/11/21 10:51:41;;;;;;;5.03;4.00;;;;;;;14.23;48.37;96447.84;5095954;28;20535;-63
2021/11/21 10:54:23;;;;;;;6.68;4.28;;;;;;;14.18;49.81;96435.91;5095984;28;20153;-65
2021/11/21 10:56:53;;;;;;;7.38;4.15;;;;;;;14.28;50.01;96439.72;5095851;28;20439;-63
2021/11/21 11:00:06;;;;;;;4.90;3.90;;;;;;;14.32;49.25;96435.97;5095737;28;20073;-65
2021/11/21 11:02:38;;;;;;;6.85;4.28;;;;;;;14.27;49.72;96433.59;5080320;28;20043;-62
2021/11/21 11:05:13;;;;;;;8.02;4.57;;;;;;;14.31;48.73;96431.66;5095734;28;20028;-66
2021/11/21 11:08:02;;;;;;;6.05;4.32;;;;;;;14.26;48.15;96433.69;5095673;28;20020;-63
2021/11/21 11:10:37;;;;;;;6.43;4.28;;;;;;;14.18;49.18;96423.56;5095519;28;20050;-66
2021/11/21 11:13:06;;;;;;;7.50;4.85;;;;;;;14.13;50.16;96423.84;5095454;28;20035;-66
2021/11/21 11:15:39;;;;;;;6.45;5.00;;;;;;;14.00;48.77;96421.00;5094448;28;20031;-62
2021/11/21 11:18:07;;;;;;;6.10;5.05;;;;;;;13.97;51.08;96418.53;5095327;28;20389;-64
2021/11/21 11:20:42;;;;;;;6.40;5.72;;;;;;;13.82;50.42;96401.81;5095315;28;20126;-63
2021/11/21 11:23:09;;;;;;;6.53;5.35;;;;;;;13.88;50.81;96405.91;5095357;28;20483;-65
2021/11/21 11:25:37;;;;;;;6.03;4.95;;;;;;;13.91;50.28;96400.50;5095192;28;20508;-65
2021/11/21 11:28:33;;;;;;;5.82;5.25;;;;;;;13.79;50.66;96396.75;5095136;28;20020;-62
2021/11/21 11:31:01;;;;;;;6.65;5.68;;;;;;;13.93;50.27;96397.78;5095178;28;20040;-63
2021/11/21 11:33:39;;;;;;;9.18;5.35;;;;;;;13.80;50.89;96395.81;5095195;28;20394;-64
2021/11/21 11:36:22;;;;;;;7.95;5.57;;;;;;;13.87;51.06;96391.06;5095036;28;20032;-65
2021/11/21 11:39:08;;;;;;;6.28;5.10;;;;;;;13.86;51.12;96384.09;5095241;28;20464;-66